sensor_id;sensor_type;location;lat;lon;timestamp;temperature;humidity
14755;DHT22;7469;50.906;6.952;2022-12-10T00:01:24;-0.20;99.90
14755;DHT22;7469;50.906;6.952;2022-12-10T00:03:52;-0.20;99.90
14755;DHT22;7469;50.906;6.952;2022-12-10T00:06:22;-0.20;99.90
14755;DHT22;7469;50.906;6.952;2022-12-10T00:08:50;-0.30;99.90
14755;DHT22;7469;50.906;6.952;2022-12-10T00:11:21;-0.30;99.90
14755;DHT22;7469;50.906;6.952;2022-12-10T00:13:50;-0.30;99.90
14755;DHT22;7469;50.906;6.952;2022-12-10T00:16:21;-0.40;99.90
14755;DHT22;7469;50.906;6.952;2022-12-10T00:18:50;-0.40;99.90
14755;DHT22;7469;50.906;6.952;2022-12-10T00:21:20;-0.40;99.90
14755;DHT22;7469;50.906;6.952;2022-12-10T00:23:48;-0.50;99.90
14755;DHT22;7469;50.906;6.952;2022-12-10T00:26:18;-0.50;99.90
14755;DHT22;7469;50.906;6.952;2022-12-10T00:28:48;-0.50;99.90
14755;DHT22;7469;50.906;6.952;2022-12-10T00:31:18;-0.50;99.90
14755;DHT22;7469;50.906;6.952;2022-12-10T00:33:47;-0.50;99.90
14755;DHT22;7469;50.906;6.952;2022-12-10T00:36:17;-0.60;99.90
14755;DHT22;7469;50.906;6.952;2022-12-10T00:38:46;-0.60;99.90
14755;DHT22;7469;50.906;6.952;2022-12-10T00:41:15;-0.60;99.90
14755;DHT22;7469;50.906;6.952;2022-12-10T00:43:44;-0.60;99.90
14755;DHT22;7469;50.906;6.952;2022-12-10T00:46:14;-0.60;99.90
14755;DHT22;7469;50.906;6.952;2022-12-10T00:48:43;-0.60;99.90
14755;DHT22;7469;50.906;6.952;2022-12-10T00:51:13;-0.60;99.90
14755;DHT22;7469;50.906;6.952;2022-12-10T00:53:43;-0.70;99.90
14755;DHT22;7469;50.906;6.952;2022-12-10T00:56:13;-0.70;99.90
14755;DHT22;7469;50.906;6.952;2022-12-10T00:58:41;-0.70;99.90
14755;DHT22;7469;50.906;6.952;2022-12-10T01:01:11;-0.70;99.90
14755;DHT22;7469;50.906;6.952;2022-12-10T01:03:41;-0.70;99.90
14755;DHT22;7469;50.906;6.952;2022-12-10T01:06:12;-0.70;99.90
14755;DHT22;7469;50.906;6.952;2022-12-10T01:08:41;-0.80;99.90
14755;DHT22;7469;50.906;6.952;2022-12-10T01:11:10;-0.80;99.90
14755;DHT22;7469;50.906;6.952;2022-12-10T01:13:39;-0.80;99.90
14755;DHT22;7469;50.906;6.952;2022-12-10T01:16:09;-0.80;99.90
14755;DHT22;7469;50.906;6.952;2022-12-10T01:18:38;-0.90;99.90
14755;DHT22;7469;50.906;6.952;2022-12-10T01:21:11;-0.90;99.90
14755;DHT22;7469;50.906;6.952;2022-12-10T01:23:41;-0.90;99.90
14755;DHT22;7469;50.906;6.952;2022-12-10T01:26:11;-0.90;99.90
14755;DHT22;7469;50.906;6.952;2022-12-10T01:28:40;-0.90;99.90
14755;DHT22;7469;50.906;6.952;2022-12-10T01:31:11;-0.90;99.90
14755;DHT22;7469;50.906;6.952;2022-12-10T01:33:40;-0.90;99.90
14755;DHT22;7469;50.906;6.952;2022-12-10T01:36:12;-0.90;99.90
14755;DHT22;7469;50.906;6.952;2022-12-10T01:38:41;-0.90;99.90
14755;DHT22;7469;50.906;6.952;2022-12-10T01:41:14;-0.90;99.90
14755;DHT22;7469;50.906;6.952;2022-12-10T01:43:54;-0.90;99.90
14755;DHT22;7469;50.906;6.952;2022-12-10T01:46:24;-0.90;99.90
14755;DHT22;7469;50.906;6.952;2022-12-10T01:48:52;-0.80;99.90
14755;DHT22;7469;50.906;6.952;2022-12-10T01:51:23;-0.80;99.90
14755;DHT22;7469;50.906;6.952;2022-12-10T01:53:52;-0.70;99.90
14755;DHT22;7469;50.906;6.952;2022-12-10T01:56:21;-0.70;99.90
14755;DHT22;7469;50.906;6.952;2022-12-10T01:58:52;-0.60;99.90
14755;DHT22;7469;50.906;6.952;2022-12-10T02:01:25;-0.60;99.90
14755;DHT22;7469;50.906;6.952;2022-12-10T02:04:03;-0.60;99.90
14755;DHT22;7469;50.906;6.952;2022-12-10T02:06:42;-0.50;99.90
14755;DHT22;7469;50.906;6.952;2022-12-10T02:09:18;-0.50;99.90
14755;DHT22;7469;50.906;6.952;2022-12-10T02:11:56;-0.50;99.90
14755;DHT22;7469;50.906;6.952;2022-12-10T02:14:29;-0.50;99.90
14755;DHT22;7469;50.906;6.952;2022-12-10T02:17:05;-0.50;99.90
14755;DHT22;7469;50.906;6.952;2022-12-10T02:19:51;-0.50;99.90
14755;DHT22;7469;50.906;6.952;2022-12-10T02:22:26;-0.60;99.90
14755;DHT22;7469;50.906;6.952;2022-12-10T02:24:57;-0.60;99.90
14755;DHT22;7469;50.906;6.952;2022-12-10T02:27:31;-0.60;99.90
14755;DHT22;7469;50.906;6.952;2022-12-10T02:30:03;-0.70;99.90
14755;DHT22;7469;50.906;6.952;2022-12-10T02:32:33;-0.70;99.90
14755;DHT22;7469;50.906;6.952;2022-12-10T02:35:05;-0.70;99.90
14755;DHT22;7469;50.906;6.952;2022-12-10T02:37:38;-0.80;99.90
14755;DHT22;7469;50.906;6.952;2022-12-10T02:40:11;-0.80;99.90
14755;DHT22;7469;50.906;6.952;2022-12-10T02:42:42;-0.80;99.90
14755;DHT22;7469;50.906;6.952;2022-12-10T02:45:12;-0.80;99.90
14755;DHT22;7469;50.906;6.952;2022-12-10T02:47:40;-0.90;99.90
14755;DHT22;7469;50.906;6.952;2022-12-10T02:50:10;-0.90;99.90
14755;DHT22;7469;50.906;6.952;2022-12-10T02:52:39;-0.90;99.90
14755;DHT22;7469;50.906;6.952;2022-12-10T02:55:10;-0.90;99.90
14755;DHT22;7469;50.906;6.952;2022-12-10T02:57:47;-1.00;99.90
14755;DHT22;7469;50.906;6.952;2022-12-10T03:00:20;-1.00;99.90
14755;DHT22;7469;50.906;6.952;2022-12-10T03:05:47;-1.00;99.90
14755;DHT22;7469;50.906;6.952;2022-12-10T03:08:22;-1.10;99.90
14755;DHT22;7469;50.906;6.952;2022-12-10T03:10:55;-1.10;99.90
14755;DHT22;7469;50.906;6.952;2022-12-10T03:13:29;-1.00;99.90
14755;DHT22;7469;50.906;6.952;2022-12-10T03:16:01;-1.00;99.90
14755;DHT22;7469;50.906;6.952;2022-12-10T03:18:34;-1.00;99.90
14755;DHT22;7469;50.906;6.952;2022-12-10T03:21:04;-1.00;99.90
14755;DHT22;7469;50.906;6.952;2022-12-10T03:23:36;-1.00;99.90
14755;DHT22;7469;50.906;6.952;2022-12-10T03:26:08;-1.00;99.90
14755;DHT22;7469;50.906;6.952;2022-12-10T03:28:40;-0.90;99.90
14755;DHT22;7469;50.906;6.952;2022-12-10T03:31:12;-0.90;99.90
14755;DHT22;7469;50.906;6.952;2022-12-10T03:33:41;-0.80;99.90
14755;DHT22;7469;50.906;6.952;2022-12-10T03:36:10;-0.80;99.90
14755;DHT22;7469;50.906;6.952;2022-12-10T03:38:38;-0.80;99.90
14755;DHT22;7469;50.906;6.952;2022-12-10T03:41:07;-0.80;99.90
14755;DHT22;7469;50.906;6.952;2022-12-10T03:43:35;-0.70;99.90
14755;DHT22;7469;50.906;6.952;2022-12-10T03:46:03;-0.70;99.90
14755;DHT22;7469;50.906;6.952;2022-12-10T03:48:33;-0.60;99.90
14755;DHT22;7469;50.906;6.952;2022-12-10T03:51:01;-0.60;99.90
14755;DHT22;7469;50.906;6.952;2022-12-10T03:53:29;-0.60;99.90
14755;DHT22;7469;50.906;6.952;2022-12-10T03:55:56;-0.50;99.90
14755;DHT22;7469;50.906;6.952;2022-12-10T03:58:24;-0.50;99.90
14755;DHT22;7469;50.906;6.952;2022-12-10T04:00:52;-0.50;99.90
14755;DHT22;7469;50.906;6.952;2022-12-10T04:03:20;-0.40;99.90
14755;DHT22;7469;50.906;6.952;2022-12-10T04:05:49;-0.40;99.90
14755;DHT22;7469;50.906;6.952;2022-12-10T04:08:17;-0.40;99.90
14755;DHT22;7469;50.906;6.952;2022-12-10T04:10:45;-0.30;99.90
14755;DHT22;7469;50.906;6.952;2022-12-10T04:13:13;-0.30;99.90
14755;DHT22;7469;50.906;6.952;2022-12-10T04:15:59;-0.30;99.90
14755;DHT22;7469;50.906;6.952;2022-12-10T04:18:44;-0.20;99.90
14755;DHT22;7469;50.906;6.952;2022-12-10T04:21:14;-0.20;99.90
14755;DHT22;7469;50.906;6.952;2022-12-10T04:24:00;-0.10;99.90
14755;DHT22;7469;50.906;6.952;2022-12-10T04:26:46;-0.10;99.90
14755;DHT22;7469;50.906;6.952;2022-12-10T04:29:20;-0.10;99.90
14755;DHT22;7469;50.906;6.952;2022-12-10T04:31:49;0.00;99.90
14755;DHT22;7469;50.906;6.952;2022-12-10T04:34:17;0.00;99.90
14755;DHT22;7469;50.906;6.952;2022-12-10T04:36:46;0.00;99.90
14755;DHT22;7469;50.906;6.952;2022-12-10T04:39:14;0.00;99.90
14755;DHT22;7469;50.906;6.952;2022-12-10T04:41:44;0.00;99.90
14755;DHT22;7469;50.906;6.952;2022-12-10T04:44:13;0.00;99.90
14755;DHT22;7469;50.906;6.952;2022-12-10T04:46:41;0.10;99.90
14755;DHT22;7469;50.906;6.952;2022-12-10T04:49:09;0.10;99.90
14755;DHT22;7469;50.906;6.952;2022-12-10T04:51:37;0.10;99.90
14755;DHT22;7469;50.906;6.952;2022-12-10T04:54:07;0.10;99.90
14755;DHT22;7469;50.906;6.952;2022-12-10T04:56:35;0.10;99.90
14755;DHT22;7469;50.906;6.952;2022-12-10T04:59:05;0.10;99.90
14755;DHT22;7469;50.906;6.952;2022-12-10T05:01:33;0.20;99.90
14755;DHT22;7469;50.906;6.952;2022-12-10T05:04:03;0.20;99.90
14755;DHT22;7469;50.906;6.952;2022-12-10T05:06:32;0.20;99.90
14755;DHT22;7469;50.906;6.952;2022-12-10T05:09:02;0.20;99.90
14755;DHT22;7469;50.906;6.952;2022-12-10T05:11:32;0.20;99.90
14755;DHT22;7469;50.906;6.952;2022-12-10T05:14:01;0.20;99.90
14755;DHT22;7469;50.906;6.952;2022-12-10T05:16:31;0.20;99.90
14755;DHT22;7469;50.906;6.952;2022-12-10T05:19:00;0.20;99.90
14755;DHT22;7469;50.906;6.952;2022-12-10T05:21:29;0.30;99.90
14755;DHT22;7469;50.906;6.952;2022-12-10T05:24:18;0.30;99.90
14755;DHT22;7469;50.906;6.952;2022-12-10T05:26:46;0.30;99.90
14755;DHT22;7469;50.906;6.952;2022-12-10T05:29:18;0.30;99.90
14755;DHT22;7469;50.906;6.952;2022-12-10T05:31:46;0.30;99.90
14755;DHT22;7469;50.906;6.952;2022-12-10T05:34:14;0.30;99.90
14755;DHT22;7469;50.906;6.952;2022-12-10T05:36:42;0.30;99.90
14755;DHT22;7469;50.906;6.952;2022-12-10T05:39:11;0.40;99.90
14755;DHT22;7469;50.906;6.952;2022-12-10T05:41:41;0.30;99.90
14755;DHT22;7469;50.906;6.952;2022-12-10T05:44:12;0.40;99.90
14755;DHT22;7469;50.906;6.952;2022-12-10T05:46:40;0.40;99.90
14755;DHT22;7469;50.906;6.952;2022-12-10T05:49:08;0.40;99.90
14755;DHT22;7469;50.906;6.952;2022-12-10T05:51:37;0.40;99.90
14755;DHT22;7469;50.906;6.952;2022-12-10T05:54:06;0.40;99.90
14755;DHT22;7469;50.906;6.952;2022-12-10T05:56:36;0.40;99.90
14755;DHT22;7469;50.906;6.952;2022-12-10T05:59:05;0.40;99.90
14755;DHT22;7469;50.906;6.952;2022-12-10T06:01:41;0.40;99.90
14755;DHT22;7469;50.906;6.952;2022-12-10T06:04:09;0.40;99.90
14755;DHT22;7469;50.906;6.952;2022-12-10T06:06:38;0.40;99.90
14755;DHT22;7469;50.906;6.952;2022-12-10T06:09:11;0.40;99.90
14755;DHT22;7469;50.906;6.952;2022-12-10T06:11:40;0.40;99.90
14755;DHT22;7469;50.906;6.952;2022-12-10T06:14:09;0.40;99.90
14755;DHT22;7469;50.906;6.952;2022-12-10T06:16:39;0.50;99.90
14755;DHT22;7469;50.906;6.952;2022-12-10T06:19:09;0.50;99.90
14755;DHT22;7469;50.906;6.952;2022-12-10T06:21:37;0.50;99.90
14755;DHT22;7469;50.906;6.952;2022-12-10T06:24:06;0.50;99.90
14755;DHT22;7469;50.906;6.952;2022-12-10T06:26:34;0.50;99.90
14755;DHT22;7469;50.906;6.952;2022-12-10T06:29:02;0.50;99.90
14755;DHT22;7469;50.906;6.952;2022-12-10T06:31:31;0.50;99.90
14755;DHT22;7469;50.906;6.952;2022-12-10T06:33:59;0.50;99.90
14755;DHT22;7469;50.906;6.952;2022-12-10T06:36:29;0.50;99.90
14755;DHT22;7469;50.906;6.952;2022-12-10T06:38:57;0.50;99.90
14755;DHT22;7469;50.906;6.952;2022-12-10T06:41:25;0.50;99.90
14755;DHT22;7469;50.906;6.952;2022-12-10T06:43:53;0.50;99.90
14755;DHT22;7469;50.906;6.952;2022-12-10T06:46:25;0.40;99.90
14755;DHT22;7469;50.906;6.952;2022-12-10T06:48:53;0.40;99.90
14755;DHT22;7469;50.906;6.952;2022-12-10T06:51:21;0.40;99.90
14755;DHT22;7469;50.906;6.952;2022-12-10T06:53:50;0.30;99.90
14755;DHT22;7469;50.906;6.952;2022-12-10T06:56:19;0.30;99.90
14755;DHT22;7469;50.906;6.952;2022-12-10T06:58:47;0.30;99.90
14755;DHT22;7469;50.906;6.952;2022-12-10T07:01:17;0.20;99.90
14755;DHT22;7469;50.906;6.952;2022-12-10T07:03:47;0.20;99.90
14755;DHT22;7469;50.906;6.952;2022-12-10T07:06:16;0.20;99.90
14755;DHT22;7469;50.906;6.952;2022-12-10T07:08:44;0.20;99.90
14755;DHT22;7469;50.906;6.952;2022-12-10T07:11:15;0.10;99.90
14755;DHT22;7469;50.906;6.952;2022-12-10T07:13:44;0.10;99.90
14755;DHT22;7469;50.906;6.952;2022-12-10T07:16:13;0.10;99.90
14755;DHT22;7469;50.906;6.952;2022-12-10T07:18:42;0.10;99.90
14755;DHT22;7469;50.906;6.952;2022-12-10T07:21:19;0.10;99.90
14755;DHT22;7469;50.906;6.952;2022-12-10T07:23:47;0.10;99.90
14755;DHT22;7469;50.906;6.952;2022-12-10T07:26:17;0.10;99.90
14755;DHT22;7469;50.906;6.952;2022-12-10T07:28:45;0.10;99.90
14755;DHT22;7469;50.906;6.952;2022-12-10T07:31:20;0.10;99.90
14755;DHT22;7469;50.906;6.952;2022-12-10T07:33:49;0.10;99.90
14755;DHT22;7469;50.906;6.952;2022-12-10T07:36:18;0.00;99.90
14755;DHT22;7469;50.906;6.952;2022-12-10T07:38:46;0.10;99.90
14755;DHT22;7469;50.906;6.952;2022-12-10T07:41:14;0.00;99.90
14755;DHT22;7469;50.906;6.952;2022-12-10T07:43:44;0.00;99.90
14755;DHT22;7469;50.906;6.952;2022-12-10T07:46:14;0.00;99.90
14755;DHT22;7469;50.906;6.952;2022-12-10T07:48:44;0.10;99.90
14755;DHT22;7469;50.906;6.952;2022-12-10T07:51:12;0.00;99.90
14755;DHT22;7469;50.906;6.952;2022-12-10T07:53:41;0.10;99.90
14755;DHT22;7469;50.906;6.952;2022-12-10T07:56:09;0.10;99.90
14755;DHT22;7469;50.906;6.952;2022-12-10T07:58:40;0.10;99.90
14755;DHT22;7469;50.906;6.952;2022-12-10T08:01:11;0.10;99.90
14755;DHT22;7469;50.906;6.952;2022-12-10T08:03:40;0.00;99.90
14755;DHT22;7469;50.906;6.952;2022-12-10T08:06:10;0.10;99.90
14755;DHT22;7469;50.906;6.952;2022-12-10T08:08:40;0.10;99.90
14755;DHT22;7469;50.906;6.952;2022-12-10T08:11:09;0.10;99.90
14755;DHT22;7469;50.906;6.952;2022-12-10T08:13:38;0.10;99.90
14755;DHT22;7469;50.906;6.952;2022-12-10T08:16:09;0.00;99.90
14755;DHT22;7469;50.906;6.952;2022-12-10T08:18:39;0.20;99.90
14755;DHT22;7469;50.906;6.952;2022-12-10T08:21:08;0.20;99.90
14755;DHT22;7469;50.906;6.952;2022-12-10T08:23:36;0.20;99.90
14755;DHT22;7469;50.906;6.952;2022-12-10T08:26:04;0.30;99.90
14755;DHT22;7469;50.906;6.952;2022-12-10T08:28:33;0.30;99.90
14755;DHT22;7469;50.906;6.952;2022-12-10T08:31:01;0.40;99.90
14755;DHT22;7469;50.906;6.952;2022-12-10T08:33:29;0.40;99.90
14755;DHT22;7469;50.906;6.952;2022-12-10T08:36:02;0.50;99.90
14755;DHT22;7469;50.906;6.952;2022-12-10T08:38:30;0.60;99.90
14755;DHT22;7469;50.906;6.952;2022-12-10T08:40:59;0.60;99.90
14755;DHT22;7469;50.906;6.952;2022-12-10T08:43:27;0.60;99.90
14755;DHT22;7469;50.906;6.952;2022-12-10T08:45:57;0.70;99.90
14755;DHT22;7469;50.906;6.952;2022-12-10T08:48:26;0.70;99.90
14755;DHT22;7469;50.906;6.952;2022-12-10T08:50:53;0.70;99.90
14755;DHT22;7469;50.906;6.952;2022-12-10T08:53:23;0.70;99.90
14755;DHT22;7469;50.906;6.952;2022-12-10T08:55:52;0.80;99.90
14755;DHT22;7469;50.906;6.952;2022-12-10T08:58:20;0.90;99.90
14755;DHT22;7469;50.906;6.952;2022-12-10T09:00:49;0.90;99.90
14755;DHT22;7469;50.906;6.952;2022-12-10T09:03:17;1.00;99.90
14755;DHT22;7469;50.906;6.952;2022-12-10T09:05:45;1.10;99.90
14755;DHT22;7469;50.906;6.952;2022-12-10T09:08:14;1.10;99.90
14755;DHT22;7469;50.906;6.952;2022-12-10T09:10:43;1.30;99.90
14755;DHT22;7469;50.906;6.952;2022-12-10T09:13:11;1.40;99.90
14755;DHT22;7469;50.906;6.952;2022-12-10T09:15:40;1.50;99.90
14755;DHT22;7469;50.906;6.952;2022-12-10T09:18:08;1.60;99.90
14755;DHT22;7469;50.906;6.952;2022-12-10T09:20:36;1.60;99.90
14755;DHT22;7469;50.906;6.952;2022-12-10T09:23:04;1.60;99.90
14755;DHT22;7469;50.906;6.952;2022-12-10T09:25:32;1.60;99.90
14755;DHT22;7469;50.906;6.952;2022-12-10T09:28:03;1.60;99.90
14755;DHT22;7469;50.906;6.952;2022-12-10T09:30:30;1.60;99.90
14755;DHT22;7469;50.906;6.952;2022-12-10T09:33:00;1.60;99.90
14755;DHT22;7469;50.906;6.952;2022-12-10T09:35:28;1.70;99.90
14755;DHT22;7469;50.906;6.952;2022-12-10T09:37:56;1.80;99.90
14755;DHT22;7469;50.906;6.952;2022-12-10T09:40:29;1.90;99.90
14755;DHT22;7469;50.906;6.952;2022-12-10T09:43:02;1.90;99.90
14755;DHT22;7469;50.906;6.952;2022-12-10T09:45:40;2.00;99.90
14755;DHT22;7469;50.906;6.952;2022-12-10T09:48:18;2.00;99.90
14755;DHT22;7469;50.906;6.952;2022-12-10T09:50:53;2.10;99.90
14755;DHT22;7469;50.906;6.952;2022-12-10T09:53:24;2.10;99.90
14755;DHT22;7469;50.906;6.952;2022-12-10T09:55:52;2.20;99.90
14755;DHT22;7469;50.906;6.952;2022-12-10T09:58:22;2.30;99.90
14755;DHT22;7469;50.906;6.952;2022-12-10T10:01:00;2.40;99.90
14755;DHT22;7469;50.906;6.952;2022-12-10T10:03:29;2.60;99.90
14755;DHT22;7469;50.906;6.952;2022-12-10T10:05:59;2.70;99.90
14755;DHT22;7469;50.906;6.952;2022-12-10T10:08:33;2.90;99.90
14755;DHT22;7469;50.906;6.952;2022-12-10T10:11:04;3.10;99.90
14755;DHT22;7469;50.906;6.952;2022-12-10T10:13:35;3.20;99.90
14755;DHT22;7469;50.906;6.952;2022-12-10T10:16:19;3.30;99.90
14755;DHT22;7469;50.906;6.952;2022-12-10T10:18:51;3.40;99.90
14755;DHT22;7469;50.906;6.952;2022-12-10T10:21:22;3.40;99.90
14755;DHT22;7469;50.906;6.952;2022-12-10T10:23:51;3.50;99.90
14755;DHT22;7469;50.906;6.952;2022-12-10T10:26:19;3.50;99.90
14755;DHT22;7469;50.906;6.952;2022-12-10T10:28:57;3.50;99.90
14755;DHT22;7469;50.906;6.952;2022-12-10T10:31:29;3.50;99.90
14755;DHT22;7469;50.906;6.952;2022-12-10T10:33:59;3.50;99.90
14755;DHT22;7469;50.906;6.952;2022-12-10T10:36:30;3.60;99.90
14755;DHT22;7469;50.906;6.952;2022-12-10T10:39:08;3.60;99.90
14755;DHT22;7469;50.906;6.952;2022-12-10T10:41:39;3.70;99.90
14755;DHT22;7469;50.906;6.952;2022-12-10T10:44:14;3.70;99.90
14755;DHT22;7469;50.906;6.952;2022-12-10T10:46:46;3.90;99.90
14755;DHT22;7469;50.906;6.952;2022-12-10T10:49:22;4.40;99.90
14755;DHT22;7469;50.906;6.952;2022-12-10T10:51:51;4.90;99.90
14755;DHT22;7469;50.906;6.952;2022-12-10T10:54:33;5.40;99.90
14755;DHT22;7469;50.906;6.952;2022-12-10T10:57:02;5.90;99.90
14755;DHT22;7469;50.906;6.952;2022-12-10T10:59:33;6.40;99.90
14755;DHT22;7469;50.906;6.952;2022-12-10T11:02:14;6.90;99.90
14755;DHT22;7469;50.906;6.952;2022-12-10T11:04:48;6.90;99.90
14755;DHT22;7469;50.906;6.952;2022-12-10T11:07:21;6.90;99.90
14755;DHT22;7469;50.906;6.952;2022-12-10T11:09:53;6.70;99.90
14755;DHT22;7469;50.906;6.952;2022-12-10T11:12:35;6.60;99.90
14755;DHT22;7469;50.906;6.952;2022-12-10T11:15:29;6.50;99.90
14755;DHT22;7469;50.906;6.952;2022-12-10T11:17:59;6.30;99.90
14755;DHT22;7469;50.906;6.952;2022-12-10T11:20:30;6.10;99.90
14755;DHT22;7469;50.906;6.952;2022-12-10T11:23:09;6.20;99.90
14755;DHT22;7469;50.906;6.952;2022-12-10T11:25:43;6.20;99.90
14755;DHT22;7469;50.906;6.952;2022-12-10T11:28:27;6.30;99.90
14755;DHT22;7469;50.906;6.952;2022-12-10T11:31:13;6.30;99.90
14755;DHT22;7469;50.906;6.952;2022-12-10T11:33:53;6.30;99.90
14755;DHT22;7469;50.906;6.952;2022-12-10T11:36:29;6.10;99.90
14755;DHT22;7469;50.906;6.952;2022-12-10T11:39:10;6.00;99.90
14755;DHT22;7469;50.906;6.952;2022-12-10T11:41:48;5.90;99.90
14755;DHT22;7469;50.906;6.952;2022-12-10T11:44:25;5.70;99.90
14755;DHT22;7469;50.906;6.952;2022-12-10T11:47:20;5.60;99.90
14755;DHT22;7469;50.906;6.952;2022-12-10T11:50:07;5.40;99.90
14755;DHT22;7469;50.906;6.952;2022-12-10T11:52:47;5.30;99.90
14755;DHT22;7469;50.906;6.952;2022-12-10T11:55:24;5.20;99.90
14755;DHT22;7469;50.906;6.952;2022-12-10T11:58:03;5.10;99.90
14755;DHT22;7469;50.906;6.952;2022-12-10T12:00:42;5.10;99.90
14755;DHT22;7469;50.906;6.952;2022-12-10T12:03:36;5.00;99.90
14755;DHT22;7469;50.906;6.952;2022-12-10T12:06:37;4.90;99.90
14755;DHT22;7469;50.906;6.952;2022-12-10T12:09:23;4.80;99.90
14755;DHT22;7469;50.906;6.952;2022-12-10T12:12:03;4.80;99.90
14755;DHT22;7469;50.906;6.952;2022-12-10T12:14:36;4.80;99.90
14755;DHT22;7469;50.906;6.952;2022-12-10T12:17:12;4.80;99.90
14755;DHT22;7469;50.906;6.952;2022-12-10T12:19:47;4.90;99.90
14755;DHT22;7469;50.906;6.952;2022-12-10T12:22:23;4.90;99.90
14755;DHT22;7469;50.906;6.952;2022-12-10T12:24:54;5.10;99.90
14755;DHT22;7469;50.906;6.952;2022-12-10T12:27:27;5.20;99.90
14755;DHT22;7469;50.906;6.952;2022-12-10T12:30:04;5.30;99.90
14755;DHT22;7469;50.906;6.952;2022-12-10T12:32:43;5.40;99.90
14755;DHT22;7469;50.906;6.952;2022-12-10T12:35:16;5.40;99.90
14755;DHT22;7469;50.906;6.952;2022-12-10T12:37:50;5.50;99.90
14755;DHT22;7469;50.906;6.952;2022-12-10T12:40:27;5.50;99.90
14755;DHT22;7469;50.906;6.952;2022-12-10T12:42:58;5.40;99.90
14755;DHT22;7469;50.906;6.952;2022-12-10T12:45:35;5.30;99.90
14755;DHT22;7469;50.906;6.952;2022-12-10T12:48:19;5.10;99.90
14755;DHT22;7469;50.906;6.952;2022-12-10T12:50:53;5.00;99.90
14755;DHT22;7469;50.906;6.952;2022-12-10T12:53:23;4.90;99.90
14755;DHT22;7469;50.906;6.952;2022-12-10T12:56:03;4.80;99.90
14755;DHT22;7469;50.906;6.952;2022-12-10T12:58:37;4.70;99.90
14755;DHT22;7469;50.906;6.952;2022-12-10T13:01:17;4.60;99.90
14755;DHT22;7469;50.906;6.952;2022-12-10T13:03:48;4.50;99.90
14755;DHT22;7469;50.906;6.952;2022-12-10T13:06:20;4.40;99.90
14755;DHT22;7469;50.906;6.952;2022-12-10T13:08:57;4.30;99.90
14755;DHT22;7469;50.906;6.952;2022-12-10T13:11:30;4.30;99.90
14755;DHT22;7469;50.906;6.952;2022-12-10T13:14:29;4.30;99.90
14755;DHT22;7469;50.906;6.952;2022-12-10T13:17:22;4.30;99.90
14755;DHT22;7469;50.906;6.952;2022-12-10T13:20:30;4.40;99.90
14755;DHT22;7469;50.906;6.952;2022-12-10T13:22:59;4.40;99.90
14755;DHT22;7469;50.906;6.952;2022-12-10T13:25:41;4.50;99.90
14755;DHT22;7469;50.906;6.952;2022-12-10T13:28:27;4.40;99.90
14755;DHT22;7469;50.906;6.952;2022-12-10T13:34:19;4.40;99.90
14755;DHT22;7469;50.906;6.952;2022-12-10T13:37:15;4.20;99.90
14755;DHT22;7469;50.906;6.952;2022-12-10T13:39:52;4.10;99.90
14755;DHT22;7469;50.906;6.952;2022-12-10T13:42:31;4.00;99.90
14755;DHT22;7469;50.906;6.952;2022-12-10T13:45:34;4.00;99.90
14755;DHT22;7469;50.906;6.952;2022-12-10T13:48:28;3.90;99.90
14755;DHT22;7469;50.906;6.952;2022-12-10T13:51:10;3.90;99.90
14755;DHT22;7469;50.906;6.952;2022-12-10T13:53:49;3.90;99.90
14755;DHT22;7469;50.906;6.952;2022-12-10T13:56:26;3.90;99.90
14755;DHT22;7469;50.906;6.952;2022-12-10T13:59:10;3.80;99.90
14755;DHT22;7469;50.906;6.952;2022-12-10T14:01:46;3.80;99.90
14755;DHT22;7469;50.906;6.952;2022-12-10T14:04:46;3.70;99.90
14755;DHT22;7469;50.906;6.952;2022-12-10T14:07:19;3.70;99.90
14755;DHT22;7469;50.906;6.952;2022-12-10T14:09:49;3.60;99.90
14755;DHT22;7469;50.906;6.952;2022-12-10T14:12:22;3.60;99.90
14755;DHT22;7469;50.906;6.952;2022-12-10T14:14:56;3.50;99.90
14755;DHT22;7469;50.906;6.952;2022-12-10T14:17:32;3.50;99.90
14755;DHT22;7469;50.906;6.952;2022-12-10T14:20:02;3.50;99.90
14755;DHT22;7469;50.906;6.952;2022-12-10T14:22:34;3.30;99.90
14755;DHT22;7469;50.906;6.952;2022-12-10T14:25:04;3.30;99.90
14755;DHT22;7469;50.906;6.952;2022-12-10T14:27:35;3.20;99.90
14755;DHT22;7469;50.906;6.952;2022-12-10T14:30:14;3.10;99.90
14755;DHT22;7469;50.906;6.952;2022-12-10T14:32:42;3.10;99.90
14755;DHT22;7469;50.906;6.952;2022-12-10T14:35:13;3.00;99.90
14755;DHT22;7469;50.906;6.952;2022-12-10T14:37:52;2.90;99.90
14755;DHT22;7469;50.906;6.952;2022-12-10T14:40:23;2.70;99.90
14755;DHT22;7469;50.906;6.952;2022-12-10T14:42:57;2.70;99.90
14755;DHT22;7469;50.906;6.952;2022-12-10T14:45:36;2.60;99.90
14755;DHT22;7469;50.906;6.952;2022-12-10T14:48:05;2.60;99.90
14755;DHT22;7469;50.906;6.952;2022-12-10T14:50:37;2.60;99.90
14755;DHT22;7469;50.906;6.952;2022-12-10T14:53:13;2.60;99.90
14755;DHT22;7469;50.906;6.952;2022-12-10T14:55:43;2.60;99.90
14755;DHT22;7469;50.906;6.952;2022-12-10T14:58:14;2.60;99.90
14755;DHT22;7469;50.906;6.952;2022-12-10T15:00:46;2.60;99.90
14755;DHT22;7469;50.906;6.952;2022-12-10T15:03:24;2.60;99.90
14755;DHT22;7469;50.906;6.952;2022-12-10T15:05:55;2.50;99.90
14755;DHT22;7469;50.906;6.952;2022-12-10T15:08:26;2.50;99.90
14755;DHT22;7469;50.906;6.952;2022-12-10T15:10:57;2.50;99.90
14755;DHT22;7469;50.906;6.952;2022-12-10T15:13:32;2.50;99.90
14755;DHT22;7469;50.906;6.952;2022-12-10T15:16:02;2.50;99.90
14755;DHT22;7469;50.906;6.952;2022-12-10T15:18:32;2.50;99.90
14755;DHT22;7469;50.906;6.952;2022-12-10T15:21:08;2.40;99.90
14755;DHT22;7469;50.906;6.952;2022-12-10T15:23:36;2.40;99.90
14755;DHT22;7469;50.906;6.952;2022-12-10T15:26:15;2.40;99.90
14755;DHT22;7469;50.906;6.952;2022-12-10T15:28:45;2.30;99.90
14755;DHT22;7469;50.906;6.952;2022-12-10T15:31:28;2.30;99.90
14755;DHT22;7469;50.906;6.952;2022-12-10T15:33:59;2.30;99.90
14755;DHT22;7469;50.906;6.952;2022-12-10T15:36:34;2.30;99.90
14755;DHT22;7469;50.906;6.952;2022-12-10T15:39:04;2.30;99.90
14755;DHT22;7469;50.906;6.952;2022-12-10T15:41:43;2.30;99.90
14755;DHT22;7469;50.906;6.952;2022-12-10T15:44:19;2.20;99.90
14755;DHT22;7469;50.906;6.952;2022-12-10T15:46:49;2.20;99.90
14755;DHT22;7469;50.906;6.952;2022-12-10T15:49:17;2.20;99.90
14755;DHT22;7469;50.906;6.952;2022-12-10T15:51:45;2.30;99.90
14755;DHT22;7469;50.906;6.952;2022-12-10T15:54:21;2.20;99.90
14755;DHT22;7469;50.906;6.952;2022-12-10T15:56:49;2.20;99.90
14755;DHT22;7469;50.906;6.952;2022-12-10T15:59:17;2.20;99.90
14755;DHT22;7469;50.906;6.952;2022-12-10T16:01:45;2.20;99.90
14755;DHT22;7469;50.906;6.952;2022-12-10T16:04:15;2.20;99.90
14755;DHT22;7469;50.906;6.952;2022-12-10T16:06:43;2.20;99.90
14755;DHT22;7469;50.906;6.952;2022-12-10T16:09:11;2.20;99.90
14755;DHT22;7469;50.906;6.952;2022-12-10T16:11:39;2.10;99.90
14755;DHT22;7469;50.906;6.952;2022-12-10T16:14:09;2.10;99.90
14755;DHT22;7469;50.906;6.952;2022-12-10T16:16:37;2.10;99.90
14755;DHT22;7469;50.906;6.952;2022-12-10T16:19:10;2.10;99.90
14755;DHT22;7469;50.906;6.952;2022-12-10T16:21:40;2.10;99.90
14755;DHT22;7469;50.906;6.952;2022-12-10T16:24:09;2.10;99.90
14755;DHT22;7469;50.906;6.952;2022-12-10T16:26:37;2.10;99.90
14755;DHT22;7469;50.906;6.952;2022-12-10T16:29:07;2.20;99.90
14755;DHT22;7469;50.906;6.952;2022-12-10T16:31:35;2.10;99.90
14755;DHT22;7469;50.906;6.952;2022-12-10T16:34:03;2.10;99.90
14755;DHT22;7469;50.906;6.952;2022-12-10T16:36:34;2.10;99.90